Time,TemperatureF,DewpointF,PressureIn,WindDirection,WindDirectionDegrees,WindSpeedMPH,WindSpeedGustMPH,Humidity,HourlyPrecipIn,Conditions,Clouds,dailyrainin,SoftwareType,DateUTC
2013-08-17 00:03:00,60.0,54.0,-100.00,WNW,295,1.0,2.0,82,0.00,,,-99.99,,2013-08-17 05:03:00,
2013-08-17 00:13:00,60.0,54.0,-100.00,WNW,295,1.0,2.0,82,0.00,,,-99.99,,2013-08-17 05:13:00,
2013-08-17 00:51:00,58.0,53.0,-100.00,NW,305,1.0,2.0,84,0.00,,,-99.99,,2013-08-17 05:51:00,
2013-08-17 01:01:00,58.0,53.0,-100.00,NW,305,1.0,2.0,84,0.00,,,-99.99,,2013-08-17 06:01:00,
2013-08-17 01:12:00,58.0,53.0,-100.00,NW,305,1.0,2.0,84,0.00,,,-99.99,,2013-08-17 06:12:00,
2013-08-17 01:52:00,57.0,53.0,-100.00,WNW,285,1.0,2.0,85,0.00,,,-99.99,,2013-08-17 06:52:00,
2013-08-17 02:01:00,57.0,53.0,-100.00,WNW,285,1.0,2.0,85,0.00,,,-99.99,,2013-08-17 07:01:00,
2013-08-17 02:11:00,57.0,53.0,-100.00,WNW,285,1.0,2.0,85,0.00,,,-99.99,,2013-08-17 07:11:00,
2013-08-17 02:52:00,56.0,52.0,-100.00,NW,325,1.0,1.0,86,0.00,,,-99.99,,2013-08-17 07:52:00,
2013-08-17 03:01:00,56.0,52.0,-100.00,NW,325,1.0,1.0,86,0.00,,,-99.99,,2013-08-17 08:01:00,
2013-08-17 03:11:00,56.0,52.0,-100.00,NW,325,1.0,1.0,86,0.00,,,-99.99,,2013-08-17 08:11:00,
2013-08-17 03:52:00,55.0,51.0,-100.00,NW,310,0.0,1.0,87,0.00,,,-99.99,,2013-08-17 08:52:00,
2013-08-17 04:01:00,55.0,51.0,-100.00,NW,310,0.0,1.0,87,0.00,,,-99.99,,2013-08-17 09:01:00,
2013-08-17 04:11:00,55.0,51.0,-100.00,NW,310,0.0,1.0,87,0.00,,,-99.99,,2013-08-17 09:11:00,
2013-08-17 04:53:00,54.0,50.0,-100.00,WNW,300,1.0,1.0,87,0.00,,,-99.99,,2013-08-17 09:53:00,
2013-08-17 05:03:00,54.0,50.0,-100.00,WNW,300,1.0,1.0,87,0.00,,,-99.99,,2013-08-17 10:03:00,
2013-08-17 05:12:00,54.0,50.0,-100.00,WNW,300,1.0,1.0,87,0.00,,,-99.99,,2013-08-17 10:12:00,
2013-08-17 05:53:00,52.0,49.0,-100.00,NW,320,1.0,1.0,87,0.00,,,-99.99,,2013-08-17 10:53:00,
2013-08-17 06:02:00,52.0,49.0,-100.00,NW,320,1.0,1.0,87,0.00,,,-99.99,,2013-08-17 11:02:00,
2013-08-17 06:11:00,52.0,49.0,-100.00,NW,320,1.0,1.0,87,0.00,,,-99.99,,2013-08-17 11:11:00,
2013-08-17 06:52:00,51.0,48.0,-100.00,NW,325,1.0,1.0,87,0.00,,,-99.99,,2013-08-17 11:52:00,
2013-08-17 07:01:00,51.0,48.0,-100.00,NW,325,1.0,1.0,87,0.00,,,-99.99,,2013-08-17 12:01:00,
2013-08-17 07:11:00,51.0,48.0,-100.00,NW,325,1.0,1.0,87,0.00,,,-99.99,,2013-08-17 12:11:00,
2013-08-17 07:52:00,56.0,52.0,-100.00,West,275,1.0,2.0,87,0.00,,,-99.99,,2013-08-17 12:52:00,
2013-08-17 08:01:00,56.0,52.0,-100.00,West,275,1.0,2.0,87,0.00,,,-99.99,,2013-08-17 13:01:00,
2013-08-17 08:11:00,56.0,52.0,-100.00,West,275,1.0,2.0,87,0.00,,,-99.99,,2013-08-17 13:11:00,
2013-08-17 08:42:00,63.0,52.0,-100.00,West,270,2.0,6.0,66,0.00,,,-99.99,,2013-08-17 13:42:00,
2013-08-17 08:52:00,63.0,52.0,-100.00,West,270,2.0,6.0,66,0.00,,,-99.99,,2013-08-17 13:52:00,
2013-08-17 09:01:00,63.0,52.0,-100.00,West,270,2.0,6.0,66,0.00,,,-99.99,,2013-08-17 14:01:00,
2013-08-17 09:11:00,63.0,52.0,-100.00,West,270,2.0,6.0,66,0.00,,,-99.99,,2013-08-17 14:11:00,
2013-08-17 23:03:00,-999.0,-99.9,-100.00,NW,320,1.0,2.0,-999,0.00,,,-99.99,,2013-08-18 04:03:00,